sensor_id;sensor_type;location;lat;lon;timestamp;P1;durP1;ratioP1;P2;durP2;ratioP2
15480;SDS011;7842;50.904;6.670;2022-12-11T00:02:18;54.22;;;27.90;;
15480;SDS011;7842;50.904;6.670;2022-12-11T00:04:44;52.80;;;27.93;;
15480;SDS011;7842;50.904;6.670;2022-12-11T00:07:10;55.83;;;29.20;;
15480;SDS011;7842;50.904;6.670;2022-12-11T00:09:35;57.25;;;28.50;;
15480;SDS011;7842;50.904;6.670;2022-12-11T00:12:01;54.53;;;28.75;;
15480;SDS011;7842;50.904;6.670;2022-12-11T00:14:29;55.28;;;29.33;;
15480;SDS011;7842;50.904;6.670;2022-12-11T00:16:55;53.10;;;29.02;;
15480;SDS011;7842;50.904;6.670;2022-12-11T00:19:21;54.65;;;28.13;;
15480;SDS011;7842;50.904;6.670;2022-12-11T00:21:47;53.13;;;28.17;;
15480;SDS011;7842;50.904;6.670;2022-12-11T00:24:13;55.00;;;29.50;;
15480;SDS011;7842;50.904;6.670;2022-12-11T00:26:38;55.67;;;29.23;;
15480;SDS011;7842;50.904;6.670;2022-12-11T00:29:04;55.40;;;28.07;;
15480;SDS011;7842;50.904;6.670;2022-12-11T00:31:32;57.03;;;29.23;;
15480;SDS011;7842;50.904;6.670;2022-12-11T00:33:57;54.03;;;28.27;;
15480;SDS011;7842;50.904;6.670;2022-12-11T00:36:25;52.78;;;27.30;;
15480;SDS011;7842;50.904;6.670;2022-12-11T00:38:51;54.90;;;27.70;;
15480;SDS011;7842;50.904;6.670;2022-12-11T00:41:18;50.63;;;27.40;;
15480;SDS011;7842;50.904;6.670;2022-12-11T00:43:44;52.67;;;26.70;;
15480;SDS011;7842;50.904;6.670;2022-12-11T00:46:10;50.35;;;25.50;;
15480;SDS011;7842;50.904;6.670;2022-12-11T00:48:36;52.70;;;27.97;;
15480;SDS011;7842;50.904;6.670;2022-12-11T00:51:02;51.38;;;25.70;;
15480;SDS011;7842;50.904;6.670;2022-12-11T00:53:28;51.70;;;26.67;;
15480;SDS011;7842;50.904;6.670;2022-12-11T00:55:54;52.33;;;27.10;;
15480;SDS011;7842;50.904;6.670;2022-12-11T00:58:20;54.30;;;26.70;;
15480;SDS011;7842;50.904;6.670;2022-12-11T01:00:46;51.90;;;26.55;;
15480;SDS011;7842;50.904;6.670;2022-12-11T01:03:13;50.75;;;26.20;;
15480;SDS011;7842;50.904;6.670;2022-12-11T01:05:40;49.00;;;26.30;;
15480;SDS011;7842;50.904;6.670;2022-12-11T01:08:06;49.80;;;26.00;;
15480;SDS011;7842;50.904;6.670;2022-12-11T01:10:32;51.10;;;25.40;;
15480;SDS011;7842;50.904;6.670;2022-12-11T01:13:00;47.90;;;24.00;;
15480;SDS011;7842;50.904;6.670;2022-12-11T01:15:29;49.92;;;24.95;;
15480;SDS011;7842;50.904;6.670;2022-12-11T01:17:57;50.28;;;26.02;;
15480;SDS011;7842;50.904;6.670;2022-12-11T01:20:23;48.88;;;24.58;;
15480;SDS011;7842;50.904;6.670;2022-12-11T01:22:53;46.20;;;24.13;;
15480;SDS011;7842;50.904;6.670;2022-12-11T01:25:21;47.10;;;24.17;;
15480;SDS011;7842;50.904;6.670;2022-12-11T01:27:48;47.10;;;24.13;;
15480;SDS011;7842;50.904;6.670;2022-12-11T01:30:15;49.53;;;24.45;;
15480;SDS011;7842;50.904;6.670;2022-12-11T01:32:41;49.57;;;24.87;;
15480;SDS011;7842;50.904;6.670;2022-12-11T01:35:07;46.23;;;23.87;;
15480;SDS011;7842;50.904;6.670;2022-12-11T01:37:33;47.45;;;24.65;;
15480;SDS011;7842;50.904;6.670;2022-12-11T01:39:59;46.55;;;24.15;;
15480;SDS011;7842;50.904;6.670;2022-12-11T01:42:25;47.75;;;24.02;;
15480;SDS011;7842;50.904;6.670;2022-12-11T01:47:36;46.00;;;24.10;;
15480;SDS011;7842;50.904;6.670;2022-12-11T01:50:02;45.50;;;22.95;;
15480;SDS011;7842;50.904;6.670;2022-12-11T01:52:28;45.72;;;23.55;;
15480;SDS011;7842;50.904;6.670;2022-12-11T01:54:54;45.08;;;23.35;;
15480;SDS011;7842;50.904;6.670;2022-12-11T01:57:20;44.58;;;22.73;;
15480;SDS011;7842;50.904;6.670;2022-12-11T01:59:45;45.00;;;23.60;;
15480;SDS011;7842;50.904;6.670;2022-12-11T02:02:19;43.35;;;22.63;;
15480;SDS011;7842;50.904;6.670;2022-12-11T02:04:50;45.75;;;23.15;;
15480;SDS011;7842;50.904;6.670;2022-12-11T02:07:15;42.92;;;21.52;;
15480;SDS011;7842;50.904;6.670;2022-12-11T02:09:42;40.93;;;22.27;;
15480;SDS011;7842;50.904;6.670;2022-12-11T02:23:26;36.47;;;20.67;;
15480;SDS011;7842;50.904;6.670;2022-12-11T02:26:29;37.90;;;20.52;;
15480;SDS011;7842;50.904;6.670;2022-12-11T02:29:12;33.75;;;18.88;;
15480;SDS011;7842;50.904;6.670;2022-12-11T02:31:53;33.75;;;18.95;;
15480;SDS011;7842;50.904;6.670;2022-12-11T02:34:27;31.75;;;18.30;;
15480;SDS011;7842;50.904;6.670;2022-12-11T02:37:00;29.05;;;16.70;;
15480;SDS011;7842;50.904;6.670;2022-12-11T02:39:29;28.85;;;17.08;;
15480;SDS011;7842;50.904;6.670;2022-12-11T02:41:57;31.10;;;17.55;;
15480;SDS011;7842;50.904;6.670;2022-12-11T02:44:24;31.65;;;17.75;;
15480;SDS011;7842;50.904;6.670;2022-12-11T02:46:53;30.92;;;17.58;;
15480;SDS011;7842;50.904;6.670;2022-12-11T02:49:19;30.73;;;17.60;;
15480;SDS011;7842;50.904;6.670;2022-12-11T02:51:46;30.98;;;17.13;;
15480;SDS011;7842;50.904;6.670;2022-12-11T02:54:14;30.80;;;17.30;;
15480;SDS011;7842;50.904;6.670;2022-12-11T02:56:56;29.13;;;17.60;;
15480;SDS011;7842;50.904;6.670;2022-12-11T02:59:33;32.85;;;18.05;;
15480;SDS011;7842;50.904;6.670;2022-12-11T03:02:01;30.13;;;17.80;;
15480;SDS011;7842;50.904;6.670;2022-12-11T03:04:27;30.03;;;16.83;;
15480;SDS011;7842;50.904;6.670;2022-12-11T03:06:54;31.53;;;17.67;;
15480;SDS011;7842;50.904;6.670;2022-12-11T03:09:23;32.33;;;17.73;;
15480;SDS011;7842;50.904;6.670;2022-12-11T03:11:49;30.25;;;17.00;;
15480;SDS011;7842;50.904;6.670;2022-12-11T03:14:16;32.10;;;17.67;;
15480;SDS011;7842;50.904;6.670;2022-12-11T03:16:46;30.58;;;17.42;;
15480;SDS011;7842;50.904;6.670;2022-12-11T03:20:14;30.23;;;16.98;;
15480;SDS011;7842;50.904;6.670;2022-12-11T03:22:46;30.83;;;17.15;;
15480;SDS011;7842;50.904;6.670;2022-12-11T03:25:16;32.10;;;17.90;;
15480;SDS011;7842;50.904;6.670;2022-12-11T03:27:50;29.13;;;16.67;;
15480;SDS011;7842;50.904;6.670;2022-12-11T03:30:36;30.73;;;17.17;;
15480;SDS011;7842;50.904;6.670;2022-12-11T03:33:05;28.57;;;16.80;;
15480;SDS011;7842;50.904;6.670;2022-12-11T03:35:47;29.75;;;17.08;;
15480;SDS011;7842;50.904;6.670;2022-12-11T03:38:18;28.85;;;16.17;;
15480;SDS011;7842;50.904;6.670;2022-12-11T03:41:08;28.40;;;16.60;;
15480;SDS011;7842;50.904;6.670;2022-12-11T03:43:37;27.63;;;16.42;;
15480;SDS011;7842;50.904;6.670;2022-12-11T03:46:05;30.77;;;16.97;;
15480;SDS011;7842;50.904;6.670;2022-12-11T03:48:34;27.00;;;16.02;;
15480;SDS011;7842;50.904;6.670;2022-12-11T03:51:03;29.48;;;16.58;;
15480;SDS011;7842;50.904;6.670;2022-12-11T03:53:31;29.70;;;16.23;;
15480;SDS011;7842;50.904;6.670;2022-12-11T03:55:58;26.98;;;15.55;;
15480;SDS011;7842;50.904;6.670;2022-12-11T03:58:25;28.20;;;16.45;;
15480;SDS011;7842;50.904;6.670;2022-12-11T04:00:51;30.07;;;16.13;;
15480;SDS011;7842;50.904;6.670;2022-12-11T04:03:17;30.23;;;16.40;;
15480;SDS011;7842;50.904;6.670;2022-12-11T04:05:43;27.57;;;15.47;;
15480;SDS011;7842;50.904;6.670;2022-12-11T04:08:12;27.65;;;15.90;;
15480;SDS011;7842;50.904;6.670;2022-12-11T04:10:38;27.80;;;16.20;;
15480;SDS011;7842;50.904;6.670;2022-12-11T04:13:04;28.95;;;15.55;;
15480;SDS011;7842;50.904;6.670;2022-12-11T04:15:30;28.45;;;16.55;;
15480;SDS011;7842;50.904;6.670;2022-12-11T04:17:55;25.87;;;15.40;;
15480;SDS011;7842;50.904;6.670;2022-12-11T04:20:40;26.50;;;15.48;;
15480;SDS011;7842;50.904;6.670;2022-12-11T04:23:24;27.50;;;15.65;;
15480;SDS011;7842;50.904;6.670;2022-12-11T04:26:13;27.23;;;16.02;;
15480;SDS011;7842;50.904;6.670;2022-12-11T04:28:41;26.88;;;16.25;;
15480;SDS011;7842;50.904;6.670;2022-12-11T04:31:11;28.65;;;16.20;;
15480;SDS011;7842;50.904;6.670;2022-12-11T04:33:39;27.07;;;15.53;;
15480;SDS011;7842;50.904;6.670;2022-12-11T04:36:05;28.65;;;16.05;;
15480;SDS011;7842;50.904;6.670;2022-12-11T04:38:31;26.20;;;15.70;;
15480;SDS011;7842;50.904;6.670;2022-12-11T04:41:01;26.58;;;15.93;;
15480;SDS011;7842;50.904;6.670;2022-12-11T04:43:29;28.15;;;15.95;;
15480;SDS011;7842;50.904;6.670;2022-12-11T04:46:01;26.27;;;15.50;;
15480;SDS011;7842;50.904;6.670;2022-12-11T04:48:31;28.53;;;16.37;;
15480;SDS011;7842;50.904;6.670;2022-12-11T04:50:56;28.05;;;16.27;;
15480;SDS011;7842;50.904;6.670;2022-12-11T04:53:22;26.95;;;15.60;;
15480;SDS011;7842;50.904;6.670;2022-12-11T04:55:48;28.30;;;15.87;;
15480;SDS011;7842;50.904;6.670;2022-12-11T04:58:14;25.63;;;15.47;;
15480;SDS011;7842;50.904;6.670;2022-12-11T05:00:40;26.63;;;15.93;;
15480;SDS011;7842;50.904;6.670;2022-12-11T05:03:06;28.30;;;16.10;;
15480;SDS011;7842;50.904;6.670;2022-12-11T05:05:32;28.23;;;16.02;;
15480;SDS011;7842;50.904;6.670;2022-12-11T05:07:57;28.37;;;16.37;;
15480;SDS011;7842;50.904;6.670;2022-12-11T05:10:23;25.73;;;14.93;;
15480;SDS011;7842;50.904;6.670;2022-12-11T05:12:48;27.50;;;15.77;;
15480;SDS011;7842;50.904;6.670;2022-12-11T05:15:14;28.33;;;16.33;;
15480;SDS011;7842;50.904;6.670;2022-12-11T05:17:40;24.83;;;15.13;;
15480;SDS011;7842;50.904;6.670;2022-12-11T05:20:05;28.95;;;16.05;;
15480;SDS011;7842;50.904;6.670;2022-12-11T05:22:31;27.30;;;16.30;;
15480;SDS011;7842;50.904;6.670;2022-12-11T05:24:57;26.80;;;15.37;;
15480;SDS011;7842;50.904;6.670;2022-12-11T05:27:22;27.93;;;16.10;;
15480;SDS011;7842;50.904;6.670;2022-12-11T05:29:48;28.40;;;16.43;;
15480;SDS011;7842;50.904;6.670;2022-12-11T05:32:14;26.57;;;15.37;;
15480;SDS011;7842;50.904;6.670;2022-12-11T05:34:39;28.67;;;16.38;;
15480;SDS011;7842;50.904;6.670;2022-12-11T05:37:05;28.50;;;16.60;;
15480;SDS011;7842;50.904;6.670;2022-12-11T05:39:31;27.33;;;15.50;;
15480;SDS011;7842;50.904;6.670;2022-12-11T05:41:56;26.97;;;16.57;;
15480;SDS011;7842;50.904;6.670;2022-12-11T05:44:22;28.57;;;16.83;;
15480;SDS011;7842;50.904;6.670;2022-12-11T05:46:48;29.07;;;16.50;;
15480;SDS011;7842;50.904;6.670;2022-12-11T05:49:13;26.50;;;16.07;;
15480;SDS011;7842;50.904;6.670;2022-12-11T05:51:39;26.90;;;15.70;;
15480;SDS011;7842;50.904;6.670;2022-12-11T05:54:05;28.17;;;16.30;;
15480;SDS011;7842;50.904;6.670;2022-12-11T05:56:31;27.57;;;16.27;;
15480;SDS011;7842;50.904;6.670;2022-12-11T05:58:58;28.67;;;15.52;;
15480;SDS011;7842;50.904;6.670;2022-12-11T06:01:27;28.75;;;16.70;;
15480;SDS011;7842;50.904;6.670;2022-12-11T06:03:58;26.60;;;15.55;;
15480;SDS011;7842;50.904;6.670;2022-12-11T06:06:24;27.40;;;15.45;;
15480;SDS011;7842;50.904;6.670;2022-12-11T06:08:51;26.42;;;15.25;;
15480;SDS011;7842;50.904;6.670;2022-12-11T06:11:17;27.98;;;16.40;;
15480;SDS011;7842;50.904;6.670;2022-12-11T06:13:43;24.95;;;15.18;;
15480;SDS011;7842;50.904;6.670;2022-12-11T06:16:09;29.42;;;16.75;;
15480;SDS011;7842;50.904;6.670;2022-12-11T06:18:36;26.70;;;15.55;;
15480;SDS011;7842;50.904;6.670;2022-12-11T06:21:10;27.75;;;16.52;;
15480;SDS011;7842;50.904;6.670;2022-12-11T06:23:37;28.17;;;16.52;;
15480;SDS011;7842;50.904;6.670;2022-12-11T06:26:03;28.00;;;16.90;;
15480;SDS011;7842;50.904;6.670;2022-12-11T06:28:28;26.08;;;16.08;;
15480;SDS011;7842;50.904;6.670;2022-12-11T06:30:57;26.73;;;15.93;;
15480;SDS011;7842;50.904;6.670;2022-12-11T06:33:23;25.90;;;15.32;;
15480;SDS011;7842;50.904;6.670;2022-12-11T06:35:49;29.70;;;17.40;;
15480;SDS011;7842;50.904;6.670;2022-12-11T06:38:16;27.23;;;16.55;;
15480;SDS011;7842;50.904;6.670;2022-12-11T06:40:41;26.90;;;15.50;;
15480;SDS011;7842;50.904;6.670;2022-12-11T06:43:07;25.73;;;15.77;;
15480;SDS011;7842;50.904;6.670;2022-12-11T06:45:33;28.10;;;17.70;;
15480;SDS011;7842;50.904;6.670;2022-12-11T06:47:58;27.00;;;15.93;;
15480;SDS011;7842;50.904;6.670;2022-12-11T06:50:24;27.73;;;16.13;;
15480;SDS011;7842;50.904;6.670;2022-12-11T06:52:50;28.33;;;16.58;;
15480;SDS011;7842;50.904;6.670;2022-12-11T06:55:15;27.00;;;16.40;;
15480;SDS011;7842;50.904;6.670;2022-12-11T06:57:41;28.23;;;16.77;;
15480;SDS011;7842;50.904;6.670;2022-12-11T07:00:07;28.98;;;16.65;;
15480;SDS011;7842;50.904;6.670;2022-12-11T07:02:33;30.52;;;17.60;;
15480;SDS011;7842;50.904;6.670;2022-12-11T07:04:59;28.07;;;16.73;;
15480;SDS011;7842;50.904;6.670;2022-12-11T07:07:24;29.90;;;17.40;;
15480;SDS011;7842;50.904;6.670;2022-12-11T07:09:50;35.70;;;20.25;;
15480;SDS011;7842;50.904;6.670;2022-12-11T07:12:16;28.98;;;18.05;;
15480;SDS011;7842;50.904;6.670;2022-12-11T07:14:41;30.30;;;18.95;;
15480;SDS011;7842;50.904;6.670;2022-12-11T07:17:07;29.85;;;18.00;;
15480;SDS011;7842;50.904;6.670;2022-12-11T07:19:32;29.40;;;17.65;;
15480;SDS011;7842;50.904;6.670;2022-12-11T07:21:58;31.27;;;18.02;;
15480;SDS011;7842;50.904;6.670;2022-12-11T07:24:24;29.52;;;17.63;;
15480;SDS011;7842;50.904;6.670;2022-12-11T07:26:50;32.28;;;18.33;;
15480;SDS011;7842;50.904;6.670;2022-12-11T07:29:16;33.03;;;19.23;;
15480;SDS011;7842;50.904;6.670;2022-12-11T07:31:42;32.17;;;19.05;;
15480;SDS011;7842;50.904;6.670;2022-12-11T07:34:10;31.30;;;18.80;;
15480;SDS011;7842;50.904;6.670;2022-12-11T07:36:36;32.80;;;18.63;;
15480;SDS011;7842;50.904;6.670;2022-12-11T07:39:02;32.90;;;18.50;;
15480;SDS011;7842;50.904;6.670;2022-12-11T07:41:28;33.70;;;19.23;;
15480;SDS011;7842;50.904;6.670;2022-12-11T07:43:54;33.93;;;18.97;;
15480;SDS011;7842;50.904;6.670;2022-12-11T07:46:21;31.50;;;18.95;;
15480;SDS011;7842;50.904;6.670;2022-12-11T07:48:49;34.92;;;20.40;;
15480;SDS011;7842;50.904;6.670;2022-12-11T07:51:19;30.75;;;18.60;;
15480;SDS011;7842;50.904;6.670;2022-12-11T07:53:52;32.57;;;18.83;;
15480;SDS011;7842;50.904;6.670;2022-12-11T07:56:28;30.38;;;18.92;;
15480;SDS011;7842;50.904;6.670;2022-12-11T07:58:55;30.88;;;18.40;;
15480;SDS011;7842;50.904;6.670;2022-12-11T08:01:24;33.70;;;19.48;;
15480;SDS011;7842;50.904;6.670;2022-12-11T08:03:50;33.78;;;19.95;;
15480;SDS011;7842;50.904;6.670;2022-12-11T08:06:17;33.05;;;19.60;;
15480;SDS011;7842;50.904;6.670;2022-12-11T08:08:45;32.30;;;18.70;;
15480;SDS011;7842;50.904;6.670;2022-12-11T08:11:12;32.00;;;18.83;;
15480;SDS011;7842;50.904;6.670;2022-12-11T08:13:39;31.97;;;19.17;;
15480;SDS011;7842;50.904;6.670;2022-12-11T08:16:06;30.53;;;18.57;;
15480;SDS011;7842;50.904;6.670;2022-12-11T08:18:35;31.00;;;18.67;;
15480;SDS011;7842;50.904;6.670;2022-12-11T08:21:05;30.35;;;18.20;;
15480;SDS011;7842;50.904;6.670;2022-12-11T08:23:35;32.72;;;18.75;;
15480;SDS011;7842;50.904;6.670;2022-12-11T08:26:02;32.38;;;19.17;;
15480;SDS011;7842;50.904;6.670;2022-12-11T08:28:29;32.45;;;18.33;;
15480;SDS011;7842;50.904;6.670;2022-12-11T08:30:55;31.00;;;18.55;;
15480;SDS011;7842;50.904;6.670;2022-12-11T08:33:21;32.73;;;19.37;;
15480;SDS011;7842;50.904;6.670;2022-12-11T08:35:49;34.37;;;19.20;;
15480;SDS011;7842;50.904;6.670;2022-12-11T08:38:15;30.13;;;17.93;;
15480;SDS011;7842;50.904;6.670;2022-12-11T08:40:40;32.10;;;18.80;;
15480;SDS011;7842;50.904;6.670;2022-12-11T08:43:06;33.27;;;18.70;;
15480;SDS011;7842;50.904;6.670;2022-12-11T08:45:32;33.33;;;19.07;;
15480;SDS011;7842;50.904;6.670;2022-12-11T08:48:00;33.30;;;18.77;;
15480;SDS011;7842;50.904;6.670;2022-12-11T08:50:26;33.97;;;19.95;;
15480;SDS011;7842;50.904;6.670;2022-12-11T08:52:51;37.65;;;20.95;;
15480;SDS011;7842;50.904;6.670;2022-12-11T08:55:20;35.22;;;19.50;;
15480;SDS011;7842;50.904;6.670;2022-12-11T08:57:46;37.67;;;20.50;;
15480;SDS011;7842;50.904;6.670;2022-12-11T09:00:12;35.95;;;19.83;;
15480;SDS011;7842;50.904;6.670;2022-12-11T09:02:39;35.53;;;19.90;;
15480;SDS011;7842;50.904;6.670;2022-12-11T09:05:04;46.03;;;25.92;;
15480;SDS011;7842;50.904;6.670;2022-12-11T09:07:35;48.50;;;26.75;;
15480;SDS011;7842;50.904;6.670;2022-12-11T09:10:02;44.35;;;22.70;;
15480;SDS011;7842;50.904;6.670;2022-12-11T09:12:29;39.15;;;22.63;;
15480;SDS011;7842;50.904;6.670;2022-12-11T09:14:55;44.50;;;23.67;;
15480;SDS011;7842;50.904;6.670;2022-12-11T09:17:20;41.37;;;22.27;;
15480;SDS011;7842;50.904;6.670;2022-12-11T09:19:46;43.40;;;22.77;;
15480;SDS011;7842;50.904;6.670;2022-12-11T09:22:12;41.93;;;21.97;;
15480;SDS011;7842;50.904;6.670;2022-12-11T09:24:37;43.37;;;22.70;;
15480;SDS011;7842;50.904;6.670;2022-12-11T09:27:03;41.03;;;21.87;;
15480;SDS011;7842;50.904;6.670;2022-12-11T09:29:29;42.75;;;22.80;;
15480;SDS011;7842;50.904;6.670;2022-12-11T09:31:55;42.40;;;22.40;;
15480;SDS011;7842;50.904;6.670;2022-12-11T09:34:21;41.72;;;23.15;;
15480;SDS011;7842;50.904;6.670;2022-12-11T09:36:47;40.42;;;21.83;;
15480;SDS011;7842;50.904;6.670;2022-12-11T09:39:13;36.75;;;21.25;;
15480;SDS011;7842;50.904;6.670;2022-12-11T09:44:37;42.60;;;22.08;;
15480;SDS011;7842;50.904;6.670;2022-12-11T09:47:50;39.72;;;22.45;;
15480;SDS011;7842;50.904;6.670;2022-12-11T09:52:35;41.95;;;21.73;;
15480;SDS011;7842;50.904;6.670;2022-12-11T09:55:17;39.10;;;21.08;;
15480;SDS011;7842;50.904;6.670;2022-12-11T10:00:27;42.72;;;22.35;;
15480;SDS011;7842;50.904;6.670;2022-12-11T10:03:06;43.13;;;23.03;;
15480;SDS011;7842;50.904;6.670;2022-12-11T10:05:49;41.63;;;22.88;;
15480;SDS011;7842;50.904;6.670;2022-12-11T10:08:29;43.22;;;23.02;;
15480;SDS011;7842;50.904;6.670;2022-12-11T10:14:00;45.75;;;24.50;;
15480;SDS011;7842;50.904;6.670;2022-12-11T10:16:44;46.80;;;24.43;;
15480;SDS011;7842;50.904;6.670;2022-12-11T10:19:17;44.35;;;23.30;;
15480;SDS011;7842;50.904;6.670;2022-12-11T10:21:49;44.35;;;23.75;;
15480;SDS011;7842;50.904;6.670;2022-12-11T10:24:30;43.67;;;22.92;;
15480;SDS011;7842;50.904;6.670;2022-12-11T10:26:58;42.58;;;22.75;;
15480;SDS011;7842;50.904;6.670;2022-12-11T10:29:37;42.67;;;22.70;;
15480;SDS011;7842;50.904;6.670;2022-12-11T10:32:03;44.60;;;24.25;;
15480;SDS011;7842;50.904;6.670;2022-12-11T10:34:33;42.60;;;23.40;;
15480;SDS011;7842;50.904;6.670;2022-12-11T10:37:06;41.97;;;22.45;;
15480;SDS011;7842;50.904;6.670;2022-12-11T10:39:31;48.07;;;24.87;;
15480;SDS011;7842;50.904;6.670;2022-12-11T10:41:57;47.37;;;23.07;;
15480;SDS011;7842;50.904;6.670;2022-12-11T10:44:27;49.27;;;24.30;;
15480;SDS011;7842;50.904;6.670;2022-12-11T10:47:11;47.67;;;24.00;;
15480;SDS011;7842;50.904;6.670;2022-12-11T10:49:42;48.45;;;24.02;;
15480;SDS011;7842;50.904;6.670;2022-12-11T10:52:33;52.30;;;25.70;;
15480;SDS011;7842;50.904;6.670;2022-12-11T10:55:03;50.67;;;26.17;;
15480;SDS011;7842;50.904;6.670;2022-12-11T10:57:33;50.30;;;24.63;;
15480;SDS011;7842;50.904;6.670;2022-12-11T10:59:59;49.35;;;25.33;;
15480;SDS011;7842;50.904;6.670;2022-12-11T11:02:27;48.58;;;24.02;;
15480;SDS011;7842;50.904;6.670;2022-12-11T11:05:15;46.78;;;24.38;;
15480;SDS011;7842;50.904;6.670;2022-12-11T11:08:01;47.33;;;25.23;;
15480;SDS011;7842;50.904;6.670;2022-12-11T11:10:57;48.25;;;25.17;;
15480;SDS011;7842;50.904;6.670;2022-12-11T11:13:25;50.23;;;28.43;;
15480;SDS011;7842;50.904;6.670;2022-12-11T11:15:59;40.37;;;21.97;;
15480;SDS011;7842;50.904;6.670;2022-12-11T11:18:28;41.60;;;21.83;;
15480;SDS011;7842;50.904;6.670;2022-12-11T11:20:55;43.40;;;22.33;;
15480;SDS011;7842;50.904;6.670;2022-12-11T11:23:21;40.47;;;21.83;;
15480;SDS011;7842;50.904;6.670;2022-12-11T11:26:22;46.97;;;24.47;;
15480;SDS011;7842;50.904;6.670;2022-12-11T11:28:41;49.33;;;25.77;;
15480;SDS011;7842;50.904;6.670;2022-12-11T11:31:13;46.60;;;24.25;;
15480;SDS011;7842;50.904;6.670;2022-12-11T11:33:44;43.47;;;23.02;;
15480;SDS011;7842;50.904;6.670;2022-12-11T11:36:18;45.08;;;23.70;;
15480;SDS011;7842;50.904;6.670;2022-12-11T11:41:48;38.43;;;20.67;;
15480;SDS011;7842;50.904;6.670;2022-12-11T11:44:34;34.97;;;19.83;;
15480;SDS011;7842;50.904;6.670;2022-12-11T11:52:40;38.25;;;20.45;;
15480;SDS011;7842;50.904;6.670;2022-12-11T11:55:15;35.47;;;19.38;;
15480;SDS011;7842;50.904;6.670;2022-12-11T11:57:46;39.57;;;20.83;;
15480;SDS011;7842;50.904;6.670;2022-12-11T12:02:49;41.72;;;22.45;;
15480;SDS011;7842;50.904;6.670;2022-12-11T12:16:32;39.80;;;22.10;;
15480;SDS011;7842;50.904;6.670;2022-12-11T12:22:13;37.55;;;21.58;;
15480;SDS011;7842;50.904;6.670;2022-12-11T12:30:10;39.97;;;24.50;;
15480;SDS011;7842;50.904;6.670;2022-12-11T12:32:51;36.10;;;20.85;;
15480;SDS011;7842;50.904;6.670;2022-12-11T12:35:40;38.65;;;22.85;;
15480;SDS011;7842;50.904;6.670;2022-12-11T12:41:02;37.77;;;22.53;;
15480;SDS011;7842;50.904;6.670;2022-12-11T12:43:45;40.60;;;22.63;;
15480;SDS011;7842;50.904;6.670;2022-12-11T12:48:56;41.05;;;23.25;;
15480;SDS011;7842;50.904;6.670;2022-12-11T12:51:29;40.95;;;22.02;;
15480;SDS011;7842;50.904;6.670;2022-12-11T12:53:56;50.83;;;30.05;;
15480;SDS011;7842;50.904;6.670;2022-12-11T12:56:30;42.25;;;24.23;;
15480;SDS011;7842;50.904;6.670;2022-12-11T12:58:59;40.33;;;21.67;;
15480;SDS011;7842;50.904;6.670;2022-12-11T13:01:25;41.65;;;23.20;;
15480;SDS011;7842;50.904;6.670;2022-12-11T13:04:04;43.72;;;24.63;;
15480;SDS011;7842;50.904;6.670;2022-12-11T13:09:09;43.28;;;23.02;;
15480;SDS011;7842;50.904;6.670;2022-12-11T13:11:35;40.87;;;22.57;;
15480;SDS011;7842;50.904;6.670;2022-12-11T13:14:03;44.20;;;23.37;;
15480;SDS011;7842;50.904;6.670;2022-12-11T13:16:41;47.30;;;24.93;;
15480;SDS011;7842;50.904;6.670;2022-12-11T13:24:30;52.55;;;28.13;;
15480;SDS011;7842;50.904;6.670;2022-12-11T13:27:07;49.50;;;26.95;;
15480;SDS011;7842;50.904;6.670;2022-12-11T13:29:36;49.90;;;27.10;;
15480;SDS011;7842;50.904;6.670;2022-12-11T13:34:32;48.97;;;26.73;;
15480;SDS011;7842;50.904;6.670;2022-12-11T13:39:58;48.88;;;26.38;;
15480;SDS011;7842;50.904;6.670;2022-12-11T13:45:38;48.90;;;26.38;;
15480;SDS011;7842;50.904;6.670;2022-12-11T13:48:22;52.30;;;27.85;;
15480;SDS011;7842;50.904;6.670;2022-12-11T13:50:56;51.80;;;28.05;;
15480;SDS011;7842;50.904;6.670;2022-12-11T13:53:24;47.17;;;27.17;;
15480;SDS011;7842;50.904;6.670;2022-12-11T13:55:57;49.53;;;25.80;;
15480;SDS011;7842;50.904;6.670;2022-12-11T13:58:25;48.63;;;27.20;;
15480;SDS011;7842;50.904;6.670;2022-12-11T14:00:59;45.85;;;25.60;;
15480;SDS011;7842;50.904;6.670;2022-12-11T14:03:31;49.50;;;27.58;;
15480;SDS011;7842;50.904;6.670;2022-12-11T14:05:58;46.70;;;26.00;;
15480;SDS011;7842;50.904;6.670;2022-12-11T14:08:30;52.38;;;29.55;;
15480;SDS011;7842;50.904;6.670;2022-12-11T14:11:01;47.22;;;26.83;;
15480;SDS011;7842;50.904;6.670;2022-12-11T14:13:33;51.10;;;29.58;;
15480;SDS011;7842;50.904;6.670;2022-12-11T14:16:00;46.97;;;27.55;;
15480;SDS011;7842;50.904;6.670;2022-12-11T14:18:27;46.47;;;26.40;;
15480;SDS011;7842;50.904;6.670;2022-12-11T14:20:56;43.35;;;25.38;;
15480;SDS011;7842;50.904;6.670;2022-12-11T14:23:26;41.70;;;24.65;;
15480;SDS011;7842;50.904;6.670;2022-12-11T14:25:58;41.55;;;25.00;;
15480;SDS011;7842;50.904;6.670;2022-12-11T14:28:44;43.63;;;26.70;;
15480;SDS011;7842;50.904;6.670;2022-12-11T14:31:15;45.50;;;26.67;;
15480;SDS011;7842;50.904;6.670;2022-12-11T14:33:54;41.20;;;25.50;;
15480;SDS011;7842;50.904;6.670;2022-12-11T14:36:26;35.47;;;22.92;;
15480;SDS011;7842;50.904;6.670;2022-12-11T14:38:54;33.53;;;20.85;;
15480;SDS011;7842;50.904;6.670;2022-12-11T14:41:30;40.13;;;24.50;;
15480;SDS011;7842;50.904;6.670;2022-12-11T14:44:11;44.80;;;27.10;;
15480;SDS011;7842;50.904;6.670;2022-12-11T14:46:47;35.83;;;22.30;;
15480;SDS011;7842;50.904;6.670;2022-12-11T14:49:23;35.67;;;22.98;;
15480;SDS011;7842;50.904;6.670;2022-12-11T14:51:50;35.33;;;21.70;;
15480;SDS011;7842;50.904;6.670;2022-12-11T14:54:28;33.88;;;22.15;;
15480;SDS011;7842;50.904;6.670;2022-12-11T14:56:57;32.30;;;21.33;;
15480;SDS011;7842;50.904;6.670;2022-12-11T14:59:25;33.60;;;20.10;;
15480;SDS011;7842;50.904;6.670;2022-12-11T15:01:57;30.33;;;20.47;;
15480;SDS011;7842;50.904;6.670;2022-12-11T15:04:28;31.65;;;19.88;;
15480;SDS011;7842;50.904;6.670;2022-12-11T15:06:56;33.60;;;22.17;;
15480;SDS011;7842;50.904;6.670;2022-12-11T15:09:35;28.65;;;18.73;;
15480;SDS011;7842;50.904;6.670;2022-12-11T15:12:11;29.15;;;18.85;;
15480;SDS011;7842;50.904;6.670;2022-12-11T15:15:02;31.50;;;21.30;;
15480;SDS011;7842;50.904;6.670;2022-12-11T15:17:31;33.47;;;20.88;;
15480;SDS011;7842;50.904;6.670;2022-12-11T15:20:05;31.40;;;21.27;;
15480;SDS011;7842;50.904;6.670;2022-12-11T15:22:32;37.90;;;24.55;;
15480;SDS011;7842;50.904;6.670;2022-12-11T15:25:00;33.33;;;21.90;;
15480;SDS011;7842;50.904;6.670;2022-12-11T15:30:30;31.20;;;20.05;;
15480;SDS011;7842;50.904;6.670;2022-12-11T15:33:21;33.22;;;20.38;;
15480;SDS011;7842;50.904;6.670;2022-12-11T15:35:55;31.48;;;20.10;;
15480;SDS011;7842;50.904;6.670;2022-12-11T15:38:26;32.03;;;20.05;;
15480;SDS011;7842;50.904;6.670;2022-12-11T15:41:00;31.52;;;20.10;;
15480;SDS011;7842;50.904;6.670;2022-12-11T15:43:27;33.17;;;20.55;;
15480;SDS011;7842;50.904;6.670;2022-12-11T15:45:55;31.00;;;20.30;;
15480;SDS011;7842;50.904;6.670;2022-12-11T15:48:28;29.42;;;19.60;;
15480;SDS011;7842;50.904;6.670;2022-12-11T15:50:54;28.10;;;18.63;;
15480;SDS011;7842;50.904;6.670;2022-12-11T15:53:19;27.80;;;18.52;;
15480;SDS011;7842;50.904;6.670;2022-12-11T15:55:45;27.60;;;17.15;;
15480;SDS011;7842;50.904;6.670;2022-12-11T15:58:25;28.85;;;18.10;;
15480;SDS011;7842;50.904;6.670;2022-12-11T16:00:58;29.92;;;19.00;;
15480;SDS011;7842;50.904;6.670;2022-12-11T16:03:27;29.52;;;18.48;;
15480;SDS011;7842;50.904;6.670;2022-12-11T16:05:53;28.33;;;18.73;;
15480;SDS011;7842;50.904;6.670;2022-12-11T16:08:19;31.92;;;20.52;;
15480;SDS011;7842;50.904;6.670;2022-12-11T16:10:46;32.90;;;22.25;;